sensor_id;sensor_type;location;lat;lon;timestamp;temperature;humidity
13659;DHT22;6902;52.158;11.574;2022-10-15T12:20:22;20.40;99.90
13659;DHT22;6902;52.158;11.574;2022-10-15T12:22:58;20.40;99.90
13659;DHT22;6902;52.158;11.574;2022-10-15T12:54:31;20.90;99.90
13659;DHT22;6902;52.158;11.574;2022-10-15T12:57:00;20.70;99.90
13659;DHT22;6902;52.158;11.574;2022-10-15T13:02:31;20.60;99.90
13659;DHT22;6902;52.158;11.574;2022-10-15T13:05:00;20.50;99.90
13659;DHT22;6902;52.158;11.574;2022-10-15T13:07:27;20.40;99.90
13659;DHT22;6902;52.158;11.574;2022-10-15T13:09:55;20.30;99.90
13659;DHT22;6902;52.158;11.574;2022-10-15T13:12:26;20.40;99.90
13659;DHT22;6902;52.158;11.574;2022-10-15T13:14:56;20.50;99.90
13659;DHT22;6902;52.158;11.574;2022-10-15T13:17:30;20.60;99.90
13659;DHT22;6902;52.158;11.574;2022-10-15T13:19:59;20.70;99.90
13659;DHT22;6902;52.158;11.574;2022-10-15T13:22:31;20.70;99.90
13659;DHT22;6902;52.158;11.574;2022-10-15T13:24:58;20.80;99.90
13659;DHT22;6902;52.158;11.574;2022-10-15T13:27:29;20.70;99.90
13659;DHT22;6902;52.158;11.574;2022-10-15T13:29:59;20.70;99.90
13659;DHT22;6902;52.158;11.574;2022-10-15T13:32:31;20.50;99.90
13659;DHT22;6902;52.158;11.574;2022-10-15T13:35:00;20.50;99.90
13659;DHT22;6902;52.158;11.574;2022-10-15T14:00:20;20.60;99.90
13659;DHT22;6902;52.158;11.574;2022-10-15T14:03:11;20.60;99.90
13659;DHT22;6902;52.158;11.574;2022-10-15T14:05:41;20.50;99.90
13659;DHT22;6902;52.158;11.574;2022-10-15T14:08:18;20.50;99.90
13659;DHT22;6902;52.158;11.574;2022-10-15T14:10:46;20.40;99.90
13659;DHT22;6902;52.158;11.574;2022-10-15T14:13:14;20.40;99.90
13659;DHT22;6902;52.158;11.574;2022-10-15T14:15:44;20.30;99.90
13659;DHT22;6902;52.158;11.574;2022-10-15T14:18:13;20.30;99.90
13659;DHT22;6902;52.158;11.574;2022-10-15T14:20:45;20.20;99.90
13659;DHT22;6902;52.158;11.574;2022-10-15T14:23:20;20.20;99.90
13659;DHT22;6902;52.158;11.574;2022-10-15T14:25:53;20.10;99.90
13659;DHT22;6902;52.158;11.574;2022-10-15T14:28:21;20.20;99.90
13659;DHT22;6902;52.158;11.574;2022-10-15T14:30:49;20.10;99.90
13659;DHT22;6902;52.158;11.574;2022-10-15T14:33:32;20.10;99.90
13659;DHT22;6902;52.158;11.574;2022-10-15T14:36:07;20.10;99.90
13659;DHT22;6902;52.158;11.574;2022-10-15T14:38:36;20.10;99.90
13659;DHT22;6902;52.158;11.574;2022-10-15T14:41:05;20.10;99.90
13659;DHT22;6902;52.158;11.574;2022-10-15T14:43:41;20.00;99.90
13659;DHT22;6902;52.158;11.574;2022-10-15T14:46:15;20.00;99.90
13659;DHT22;6902;52.158;11.574;2022-10-15T14:48:44;20.00;99.90
13659;DHT22;6902;52.158;11.574;2022-10-15T14:51:18;19.90;99.90
13659;DHT22;6902;52.158;11.574;2022-10-15T14:53:50;19.80;99.90
13659;DHT22;6902;52.158;11.574;2022-10-15T14:56:20;19.80;99.90
13659;DHT22;6902;52.158;11.574;2022-10-15T14:58:51;19.80;99.90
13659;DHT22;6902;52.158;11.574;2022-10-15T15:01:22;19.70;99.90
13659;DHT22;6902;52.158;11.574;2022-10-15T15:03:51;19.70;99.90
13659;DHT22;6902;52.158;11.574;2022-10-15T15:06:21;19.70;99.90
13659;DHT22;6902;52.158;11.574;2022-10-15T15:08:48;19.70;99.90
13659;DHT22;6902;52.158;11.574;2022-10-15T15:11:19;19.60;99.90
13659;DHT22;6902;52.158;11.574;2022-10-15T15:13:47;19.60;99.90
13659;DHT22;6902;52.158;11.574;2022-10-15T15:16:15;19.60;99.90
13659;DHT22;6902;52.158;11.574;2022-10-15T15:18:43;19.60;99.90
13659;DHT22;6902;52.158;11.574;2022-10-15T15:21:13;19.50;99.90
13659;DHT22;6902;52.158;11.574;2022-10-15T15:23:42;19.50;99.90
13659;DHT22;6902;52.158;11.574;2022-10-15T15:26:09;19.50;99.90
13659;DHT22;6902;52.158;11.574;2022-10-15T15:28:37;19.40;99.90
13659;DHT22;6902;52.158;11.574;2022-10-15T15:31:07;19.40;99.90
13659;DHT22;6902;52.158;11.574;2022-10-15T15:33:38;19.40;99.90
13659;DHT22;6902;52.158;11.574;2022-10-15T15:36:08;19.30;99.90
13659;DHT22;6902;52.158;11.574;2022-10-15T15:38:36;19.30;99.90
13659;DHT22;6902;52.158;11.574;2022-10-15T15:41:11;19.30;99.90
13659;DHT22;6902;52.158;11.574;2022-10-15T15:43:38;19.30;99.90
13659;DHT22;6902;52.158;11.574;2022-10-15T15:46:06;19.20;99.90
13659;DHT22;6902;52.158;11.574;2022-10-15T15:48:33;19.20;99.90
13659;DHT22;6902;52.158;11.574;2022-10-15T15:51:02;19.10;99.90
13659;DHT22;6902;52.158;11.574;2022-10-15T15:53:30;19.10;99.90
13659;DHT22;6902;52.158;11.574;2022-10-15T15:55:57;19.10;99.90
13659;DHT22;6902;52.158;11.574;2022-10-15T15:58:25;19.00;99.90
13659;DHT22;6902;52.158;11.574;2022-10-15T16:00:53;19.00;99.90
13659;DHT22;6902;52.158;11.574;2022-10-15T16:03:20;19.00;99.90
13659;DHT22;6902;52.158;11.574;2022-10-15T16:05:47;18.90;99.90
13659;DHT22;6902;52.158;11.574;2022-10-15T16:08:14;18.90;99.90
13659;DHT22;6902;52.158;11.574;2022-10-15T16:10:41;18.90;99.90
13659;DHT22;6902;52.158;11.574;2022-10-15T16:13:09;18.90;99.90
13659;DHT22;6902;52.158;11.574;2022-10-15T16:15:37;18.90;99.90
13659;DHT22;6902;52.158;11.574;2022-10-15T16:18:05;18.90;99.90
13659;DHT22;6902;52.158;11.574;2022-10-15T16:20:32;18.80;99.90
13659;DHT22;6902;52.158;11.574;2022-10-15T16:23:00;18.80;99.90
13659;DHT22;6902;52.158;11.574;2022-10-15T16:25:27;18.80;99.90
13659;DHT22;6902;52.158;11.574;2022-10-15T16:27:55;18.80;99.90
13659;DHT22;6902;52.158;11.574;2022-10-15T16:30:24;18.80;99.90
13659;DHT22;6902;52.158;11.574;2022-10-15T16:32:54;18.70;99.90
13659;DHT22;6902;52.158;11.574;2022-10-15T16:35:20;18.70;99.90
13659;DHT22;6902;52.158;11.574;2022-10-15T16:37:47;18.70;99.90
13659;DHT22;6902;52.158;11.574;2022-10-15T16:40:16;18.70;99.90
13659;DHT22;6902;52.158;11.574;2022-10-15T16:42:44;18.70;99.90
13659;DHT22;6902;52.158;11.574;2022-10-15T16:45:11;18.70;99.90
13659;DHT22;6902;52.158;11.574;2022-10-15T16:47:38;18.70;99.90
13659;DHT22;6902;52.158;11.574;2022-10-15T16:50:08;18.70;99.90
13659;DHT22;6902;52.158;11.574;2022-10-15T16:52:35;18.70;99.90
13659;DHT22;6902;52.158;11.574;2022-10-15T16:55:02;18.70;99.90
13659;DHT22;6902;52.158;11.574;2022-10-15T16:57:29;18.70;99.90
13659;DHT22;6902;52.158;11.574;2022-10-15T16:59:57;18.70;99.90
13659;DHT22;6902;52.158;11.574;2022-10-15T17:02:24;18.60;99.90
13659;DHT22;6902;52.158;11.574;2022-10-15T17:04:51;18.60;99.90
13659;DHT22;6902;52.158;11.574;2022-10-15T17:07:20;18.60;99.90
13659;DHT22;6902;52.158;11.574;2022-10-15T17:09:47;18.60;99.90
13659;DHT22;6902;52.158;11.574;2022-10-15T17:12:14;18.50;99.90
13659;DHT22;6902;52.158;11.574;2022-10-15T17:14:41;18.50;99.90
13659;DHT22;6902;52.158;11.574;2022-10-15T17:17:12;18.50;99.90
13659;DHT22;6902;52.158;11.574;2022-10-15T17:19:39;18.50;99.90
13659;DHT22;6902;52.158;11.574;2022-10-15T17:22:06;18.50;99.90
13659;DHT22;6902;52.158;11.574;2022-10-15T17:24:35;18.50;99.90
13659;DHT22;6902;52.158;11.574;2022-10-15T17:27:03;18.40;99.90
13659;DHT22;6902;52.158;11.574;2022-10-15T17:29:29;18.50;99.90
13659;DHT22;6902;52.158;11.574;2022-10-15T17:31:57;18.40;99.90
13659;DHT22;6902;52.158;11.574;2022-10-15T17:34:24;18.40;99.90
13659;DHT22;6902;52.158;11.574;2022-10-15T17:36:52;18.40;99.90
13659;DHT22;6902;52.158;11.574;2022-10-15T17:39:21;18.40;99.90
13659;DHT22;6902;52.158;11.574;2022-10-15T17:41:50;18.40;99.90
13659;DHT22;6902;52.158;11.574;2022-10-15T17:44:17;18.40;99.90
13659;DHT22;6902;52.158;11.574;2022-10-15T17:46:44;18.30;99.90
13659;DHT22;6902;52.158;11.574;2022-10-15T17:49:11;18.30;99.90
13659;DHT22;6902;52.158;11.574;2022-10-15T17:51:43;18.30;99.90
13659;DHT22;6902;52.158;11.574;2022-10-15T17:54:10;18.30;99.90
13659;DHT22;6902;52.158;11.574;2022-10-15T17:56:38;18.30;99.90
13659;DHT22;6902;52.158;11.574;2022-10-15T17:59:09;18.20;99.90
13659;DHT22;6902;52.158;11.574;2022-10-15T18:01:38;18.20;99.90
13659;DHT22;6902;52.158;11.574;2022-10-15T18:04:06;18.10;99.90
13659;DHT22;6902;52.158;11.574;2022-10-15T18:06:33;18.20;99.90
13659;DHT22;6902;52.158;11.574;2022-10-15T18:09:00;18.10;99.90
13659;DHT22;6902;52.158;11.574;2022-10-15T18:11:29;18.10;99.90
13659;DHT22;6902;52.158;11.574;2022-10-15T18:13:57;18.10;99.90
13659;DHT22;6902;52.158;11.574;2022-10-15T18:16:25;18.20;99.90
13659;DHT22;6902;52.158;11.574;2022-10-15T18:18:53;18.10;99.90
13659;DHT22;6902;52.158;11.574;2022-10-15T18:21:22;18.20;99.90
13659;DHT22;6902;52.158;11.574;2022-10-15T18:23:49;18.10;99.90
13659;DHT22;6902;52.158;11.574;2022-10-15T18:26:19;18.20;99.90
13659;DHT22;6902;52.158;11.574;2022-10-15T18:28:49;18.10;99.90
13659;DHT22;6902;52.158;11.574;2022-10-15T18:31:17;18.10;99.90
13659;DHT22;6902;52.158;11.574;2022-10-15T18:33:47;18.10;99.90
13659;DHT22;6902;52.158;11.574;2022-10-15T18:36:18;18.10;99.90
13659;DHT22;6902;52.158;11.574;2022-10-15T18:38:46;18.10;99.90
13659;DHT22;6902;52.158;11.574;2022-10-15T18:41:14;18.10;99.90
13659;DHT22;6902;52.158;11.574;2022-10-15T18:43:42;18.10;99.90
13659;DHT22;6902;52.158;11.574;2022-10-15T18:46:10;18.10;99.90
13659;DHT22;6902;52.158;11.574;2022-10-15T18:48:37;18.10;99.90
13659;DHT22;6902;52.158;11.574;2022-10-15T18:51:08;18.10;99.90
13659;DHT22;6902;52.158;11.574;2022-10-15T18:53:37;18.10;99.90
13659;DHT22;6902;52.158;11.574;2022-10-15T18:56:06;18.00;99.90
13659;DHT22;6902;52.158;11.574;2022-10-15T18:58:33;18.00;99.90
13659;DHT22;6902;52.158;11.574;2022-10-15T19:01:08;18.00;99.90
13659;DHT22;6902;52.158;11.574;2022-10-15T19:03:36;18.00;99.90
13659;DHT22;6902;52.158;11.574;2022-10-15T19:06:04;18.00;99.90
13659;DHT22;6902;52.158;11.574;2022-10-15T19:08:32;18.00;99.90
13659;DHT22;6902;52.158;11.574;2022-10-15T19:11:04;18.00;99.90
13659;DHT22;6902;52.158;11.574;2022-10-15T19:13:31;18.00;99.90
13659;DHT22;6902;52.158;11.574;2022-10-15T19:15:59;18.00;99.90
13659;DHT22;6902;52.158;11.574;2022-10-15T19:18:27;18.00;99.90
13659;DHT22;6902;52.158;11.574;2022-10-15T19:20:54;18.00;99.90
13659;DHT22;6902;52.158;11.574;2022-10-15T19:23:22;18.00;99.90
13659;DHT22;6902;52.158;11.574;2022-10-15T19:25:50;17.90;99.90
13659;DHT22;6902;52.158;11.574;2022-10-15T19:28:17;17.90;99.90
13659;DHT22;6902;52.158;11.574;2022-10-15T19:30:53;17.90;99.90
13659;DHT22;6902;52.158;11.574;2022-10-15T19:33:20;17.90;99.90
13659;DHT22;6902;52.158;11.574;2022-10-15T19:35:47;17.80;99.90
13659;DHT22;6902;52.158;11.574;2022-10-15T19:38:14;17.80;99.90
13659;DHT22;6902;52.158;11.574;2022-10-15T19:40:41;17.80;99.90
13659;DHT22;6902;52.158;11.574;2022-10-15T19:43:10;17.80;99.90
13659;DHT22;6902;52.158;11.574;2022-10-15T19:45:38;17.80;99.90
13659;DHT22;6902;52.158;11.574;2022-10-15T19:48:06;17.80;99.90
13659;DHT22;6902;52.158;11.574;2022-10-15T19:50:35;17.80;99.90
13659;DHT22;6902;52.158;11.574;2022-10-15T19:53:07;17.70;99.90
13659;DHT22;6902;52.158;11.574;2022-10-15T19:55:36;17.70;99.90
13659;DHT22;6902;52.158;11.574;2022-10-15T19:58:03;17.70;99.90
13659;DHT22;6902;52.158;11.574;2022-10-15T20:00:31;17.70;99.90
13659;DHT22;6902;52.158;11.574;2022-10-15T20:02:58;17.70;99.90
13659;DHT22;6902;52.158;11.574;2022-10-15T20:05:25;17.60;99.90
13659;DHT22;6902;52.158;11.574;2022-10-15T20:07:52;17.60;99.90
13659;DHT22;6902;52.158;11.574;2022-10-15T20:10:19;17.50;99.90
13659;DHT22;6902;52.158;11.574;2022-10-15T20:12:47;17.50;99.90
13659;DHT22;6902;52.158;11.574;2022-10-15T20:15:14;17.50;99.90
13659;DHT22;6902;52.158;11.574;2022-10-15T20:17:42;17.50;99.90
13659;DHT22;6902;52.158;11.574;2022-10-15T20:20:09;17.50;99.90
13659;DHT22;6902;52.158;11.574;2022-10-15T20:22:36;17.50;99.90
13659;DHT22;6902;52.158;11.574;2022-10-15T20:25:03;17.40;99.90
13659;DHT22;6902;52.158;11.574;2022-10-15T20:27:30;17.40;99.90
13659;DHT22;6902;52.158;11.574;2022-10-15T20:29:57;17.40;99.90
13659;DHT22;6902;52.158;11.574;2022-10-15T20:32:24;17.40;99.90
13659;DHT22;6902;52.158;11.574;2022-10-15T20:34:53;17.30;99.90
13659;DHT22;6902;52.158;11.574;2022-10-15T20:37:20;17.30;99.90
13659;DHT22;6902;52.158;11.574;2022-10-15T20:39:47;17.30;99.90
13659;DHT22;6902;52.158;11.574;2022-10-15T20:42:15;17.30;99.90
13659;DHT22;6902;52.158;11.574;2022-10-15T20:44:42;17.20;99.90
13659;DHT22;6902;52.158;11.574;2022-10-15T20:47:10;17.20;99.90
13659;DHT22;6902;52.158;11.574;2022-10-15T20:49:42;17.20;99.90
13659;DHT22;6902;52.158;11.574;2022-10-15T20:52:12;17.20;99.90
13659;DHT22;6902;52.158;11.574;2022-10-15T20:54:40;17.20;99.90
13659;DHT22;6902;52.158;11.574;2022-10-15T20:57:08;17.10;99.90
13659;DHT22;6902;52.158;11.574;2022-10-15T20:59:35;17.10;99.90
13659;DHT22;6902;52.158;11.574;2022-10-15T21:02:03;17.10;99.90
13659;DHT22;6902;52.158;11.574;2022-10-15T21:04:30;17.10;99.90
13659;DHT22;6902;52.158;11.574;2022-10-15T21:06:57;17.10;99.90
13659;DHT22;6902;52.158;11.574;2022-10-15T21:09:25;17.00;99.90
13659;DHT22;6902;52.158;11.574;2022-10-15T21:11:53;17.00;99.90
13659;DHT22;6902;52.158;11.574;2022-10-15T21:14:20;17.00;99.90
13659;DHT22;6902;52.158;11.574;2022-10-15T21:16:47;17.00;99.90
13659;DHT22;6902;52.158;11.574;2022-10-15T21:19:14;17.00;99.90
13659;DHT22;6902;52.158;11.574;2022-10-15T21:21:41;17.00;99.90
13659;DHT22;6902;52.158;11.574;2022-10-15T21:24:08;16.90;99.90
13659;DHT22;6902;52.158;11.574;2022-10-15T21:26:36;16.90;99.90
13659;DHT22;6902;52.158;11.574;2022-10-15T21:29:03;16.90;99.90
13659;DHT22;6902;52.158;11.574;2022-10-15T21:31:30;16.80;99.90
13659;DHT22;6902;52.158;11.574;2022-10-15T21:33:57;16.80;99.90
13659;DHT22;6902;52.158;11.574;2022-10-15T21:36:26;16.80;99.90
13659;DHT22;6902;52.158;11.574;2022-10-15T21:38:55;16.70;99.90
13659;DHT22;6902;52.158;11.574;2022-10-15T21:41:23;16.70;99.90
13659;DHT22;6902;52.158;11.574;2022-10-15T21:43:52;16.70;99.90
13659;DHT22;6902;52.158;11.574;2022-10-15T21:46:19;16.70;99.90
13659;DHT22;6902;52.158;11.574;2022-10-15T21:48:47;16.70;99.90
13659;DHT22;6902;52.158;11.574;2022-10-15T21:51:16;16.70;99.90
13659;DHT22;6902;52.158;11.574;2022-10-15T21:53:44;16.70;99.90
13659;DHT22;6902;52.158;11.574;2022-10-15T21:56:12;16.70;99.90
13659;DHT22;6902;52.158;11.574;2022-10-15T21:58:40;16.60;99.90
13659;DHT22;6902;52.158;11.574;2022-10-15T22:01:10;16.60;99.90
13659;DHT22;6902;52.158;11.574;2022-10-15T22:03:37;16.60;99.90
13659;DHT22;6902;52.158;11.574;2022-10-15T22:06:05;16.60;99.90
13659;DHT22;6902;52.158;11.574;2022-10-15T22:08:32;16.60;99.90
13659;DHT22;6902;52.158;11.574;2022-10-15T22:11:07;16.50;99.90
13659;DHT22;6902;52.158;11.574;2022-10-15T22:13:35;16.50;99.90
13659;DHT22;6902;52.158;11.574;2022-10-15T22:16:02;16.50;99.90
13659;DHT22;6902;52.158;11.574;2022-10-15T22:18:30;16.50;99.90
13659;DHT22;6902;52.158;11.574;2022-10-15T22:21:06;16.60;99.90
13659;DHT22;6902;52.158;11.574;2022-10-15T22:23:35;16.60;99.90
13659;DHT22;6902;52.158;11.574;2022-10-15T22:26:02;16.50;99.90
13659;DHT22;6902;52.158;11.574;2022-10-15T22:28:29;16.50;99.90
13659;DHT22;6902;52.158;11.574;2022-10-15T22:31:01;16.50;99.90
13659;DHT22;6902;52.158;11.574;2022-10-15T22:33:29;16.50;99.90
13659;DHT22;6902;52.158;11.574;2022-10-15T22:35:59;16.50;99.90
13659;DHT22;6902;52.158;11.574;2022-10-15T22:38:27;16.50;99.90
13659;DHT22;6902;52.158;11.574;2022-10-15T22:40:55;16.50;99.90
13659;DHT22;6902;52.158;11.574;2022-10-15T22:43:22;16.50;99.90
13659;DHT22;6902;52.158;11.574;2022-10-15T22:45:50;16.60;99.90
13659;DHT22;6902;52.158;11.574;2022-10-15T22:48:17;16.50;99.90
13659;DHT22;6902;52.158;11.574;2022-10-15T22:50:45;16.60;99.90
13659;DHT22;6902;52.158;11.574;2022-10-15T22:53:12;16.60;99.90
13659;DHT22;6902;52.158;11.574;2022-10-15T22:55:39;16.60;99.90
13659;DHT22;6902;52.158;11.574;2022-10-15T22:58:07;16.60;99.90
13659;DHT22;6902;52.158;11.574;2022-10-15T23:00:34;16.60;99.90
13659;DHT22;6902;52.158;11.574;2022-10-15T23:03:02;16.60;99.90
13659;DHT22;6902;52.158;11.574;2022-10-15T23:05:29;16.60;99.90
13659;DHT22;6902;52.158;11.574;2022-10-15T23:07:57;16.60;99.90
13659;DHT22;6902;52.158;11.574;2022-10-15T23:10:24;16.60;99.90
13659;DHT22;6902;52.158;11.574;2022-10-15T23:12:51;16.60;99.90
13659;DHT22;6902;52.158;11.574;2022-10-15T23:15:18;16.60;99.90
13659;DHT22;6902;52.158;11.574;2022-10-15T23:17:46;16.60;99.90
13659;DHT22;6902;52.158;11.574;2022-10-15T23:20:13;16.60;99.90
13659;DHT22;6902;52.158;11.574;2022-10-15T23:22:40;16.60;99.90
13659;DHT22;6902;52.158;11.574;2022-10-15T23:25:09;16.50;99.90
13659;DHT22;6902;52.158;11.574;2022-10-15T23:27:35;16.50;99.90
13659;DHT22;6902;52.158;11.574;2022-10-15T23:30:03;16.40;99.90
13659;DHT22;6902;52.158;11.574;2022-10-15T23:32:30;16.40;99.90
13659;DHT22;6902;52.158;11.574;2022-10-15T23:34:57;16.40;99.90
13659;DHT22;6902;52.158;11.574;2022-10-15T23:37:24;16.30;99.90
13659;DHT22;6902;52.158;11.574;2022-10-15T23:39:51;16.30;99.90
13659;DHT22;6902;52.158;11.574;2022-10-15T23:42:20;16.30;99.90
13659;DHT22;6902;52.158;11.574;2022-10-15T23:44:48;16.30;99.90
13659;DHT22;6902;52.158;11.574;2022-10-15T23:47:15;16.20;99.90
13659;DHT22;6902;52.158;11.574;2022-10-15T23:49:42;16.20;99.90
13659;DHT22;6902;52.158;11.574;2022-10-15T23:52:09;16.20;99.90
13659;DHT22;6902;52.158;11.574;2022-10-15T23:54:36;16.20;99.90
13659;DHT22;6902;52.158;11.574;2022-10-15T23:57:03;16.20;99.90
13659;DHT22;6902;52.158;11.574;2022-10-15T23:59:31;16.20;99.90
